John R Operle — WDB8611 — position and weather

sailwx.info

Track history (hours):
 
Tides and Currents Weather Stations Pressure Air Temp Water Temp Dewpoint Dewpoint Depression Visibility Wind Speed Wind Dir Waves Ship Positions

John R Operle

Owner: Ingram Barge Company LLC, Nashville, TN. More information available from US FCC via Universal Licensing System and Coast Guard Vessel Documentation Center.

Last reported at 2017-Oct-02 09:36 UTC. Time now 2017-Oct-18 22:24 UTC.
Position N 40°45' W 091°07'.
Warning: this ship's position is 16 days out of date.

Length 48 m.

Type: Towing. MMSI: 366961510.

Date/timePositionNaut miles runAvg speedWind from/ knotsBaromVisibWave heightAir tempDewpointWater temp
2017-Oct-02 09:36N 40°45' W 091°07'1 3.8
2017-Oct-02 09:28N 40°44' W 091°07'2 3.2
2017-Oct-02 09:00N 40°43' W 091°07'2 3.4
2017-Oct-02 08:28N 40°41' W 091°07'  
2017-Sep-29 13:47N 38°41' W 090°11'12 0.7
2017-Sep-28 20:39N 38°52' W 090°09'1 3.7
2017-Sep-28 20:21N 38°53' W 090°11'2 5.8
2017-Sep-28 20:00N 38°54' W 090°13'3 5.7
2017-Sep-28 19:25N 38°55' W 090°17'2 5.7
2017-Sep-28 19:00N 38°56' W 090°20'3 6.0
2017-Sep-28 18:30N 38°57' W 090°23'3 5.8
2017-Sep-28 18:00N 38°57' W 090°27'3 5.6
2017-Sep-28 17:30N 38°56' W 090°30'3 5.9
2017-Sep-28 17:00N 38°53' W 090°32'  
Track history (hours):
 
Tides and Currents Weather Stations Pressure Air Temp Water Temp Dewpoint Dewpoint Depression Visibility Wind Speed Wind Dir Waves Ship Positions

John R Operle

Owner: Ingram Barge Company LLC, Nashville, TN. More information available from US FCC via Universal Licensing System and Coast Guard Vessel Documentation Center.

Last reported at 2017-Oct-02 09:36 UTC. Time now 2017-Oct-18 22:24 UTC.
Position N 40°45' W 091°07'.
Warning: this ship's position is 16 days out of date.

Length 48 m.

Type: Towing. MMSI: 366961510.

Date/timePositionNaut miles runAvg speedWind from/ knotsBaromVisibWave heightAir tempDewpointWater temp
2017-Oct-02 09:36N 40°45' W 091°07'1 3.8
2017-Oct-02 09:28N 40°44' W 091°07'2 3.2
2017-Oct-02 09:00N 40°43' W 091°07'2 3.4
2017-Oct-02 08:28N 40°41' W 091°07'  
2017-Sep-29 13:47N 38°41' W 090°11'12 0.7
2017-Sep-28 20:39N 38°52' W 090°09'1 3.7
2017-Sep-28 20:21N 38°53' W 090°11'2 5.8
2017-Sep-28 20:00N 38°54' W 090°13'3 5.7
2017-Sep-28 19:25N 38°55' W 090°17'2 5.7
2017-Sep-28 19:00N 38°56' W 090°20'3 6.0
2017-Sep-28 18:30N 38°57' W 090°23'3 5.8
2017-Sep-28 18:00N 38°57' W 090°27'3 5.6
2017-Sep-28 17:30N 38°56' W 090°30'3 5.9
2017-Sep-28 17:00N 38°53' W 090°32'  

Dump ship's entire track history